Time;durP1;ratioP1;P1;durP2;ratioP2;P2;SDS_P1;SDS_P2;PMS_P1;PMS_P2;Temp;Humidity;BMP_temperature;BMP_pressure;BME280_temperature;BME280_humidity;BME280_pressure;Samples;Min_cycle;Max_cycle;Signal;HPM_P1;HPM_P2
2021/07/25 00:03:31;;;;;;;11.23;6.45;;;;;;;19.28;100.00;100381.52;713785;1180;114413;-75
2021/07/25 00:18:34;;;;;;;14.88;7.98;;;;;;;19.10;100.00;100368.69;714622;1202;114819;-76
2021/07/25 00:33:37;;;;;;;13.80;7.45;;;;;;;18.89;100.00;100375.62;714282;1201;115012;-76
2021/07/25 00:48:39;;;;;;;14.03;7.27;;;;;;;18.89;100.00;100357.02;714495;1202;115443;-75
2021/07/25 01:03:47;;;;;;;10.88;6.88;;;;;;;18.75;100.00;100340.09;714914;1179;114378;-75
2021/07/25 01:18:51;;;;;;;10.60;5.83;;;;;;;18.92;100.00;100345.19;714231;1202;114302;-75
2021/07/25 01:33:54;;;;;;;10.35;5.60;;;;;;;19.04;100.00;100346.31;714394;1205;114860;-76
2021/07/25 01:48:56;;;;;;;7.83;4.48;;;;;;;19.16;100.00;100345.83;715278;1205;115043;-76
2021/07/25 02:03:58;;;;;;;8.90;6.00;;;;;;;19.04;100.00;100332.22;714401;1200;115719;-75
2021/07/25 02:19:01;;;;;;;7.90;5.03;;;;;;;18.95;100.00;100319.06;713810;1202;115178;-75
2021/07/25 02:34:03;;;;;;;9.28;5.25;;;;;;;18.70;100.00;100315.91;714000;1177;114194;-77
2021/07/25 02:49:05;;;;;;;9.20;5.77;;;;;;;18.49;100.00;100306.08;714276;1200;114193;-74
2021/07/25 03:04:07;;;;;;;9.60;5.63;;;;;;;18.59;100.00;100281.86;714272;1202;115528;-77
2021/07/25 03:19:10;;;;;;;8.55;5.75;;;;;;;18.62;100.00;100290.28;714020;1189;114124;-75
2021/07/25 03:34:12;;;;;;;9.95;6.18;;;;;;;18.77;100.00;100287.56;714058;1202;114255;-75
2021/07/25 03:49:14;;;;;;;7.38;5.53;;;;;;;18.90;100.00;100292.22;714128;1177;114785;-76
2021/07/25 04:04:16;;;;;;;10.00;5.93;;;;;;;19.11;100.00;100298.56;713972;1177;114132;-75
2021/07/25 04:19:18;;;;;;;8.90;6.13;;;;;;;19.37;100.00;100305.91;714360;1202;114837;-75
2021/07/25 04:34:21;;;;;;;12.30;5.97;;;;;;;19.59;100.00;100309.35;714171;1203;114943;-75
2021/07/25 04:49:31;;;;;;;8.68;6.33;;;;;;;19.95;100.00;100305.73;714490;1202;114848;-74
2021/07/25 05:04:34;;;;;;;8.73;6.43;;;;;;;20.61;100.00;100303.52;714161;1200;114410;-77
2021/07/25 05:19:52;;;;;;;11.37;6.93;;;;;;;21.10;100.00;100301.58;714027;1202;115416;-75
2021/07/25 05:34:54;;;;;;;10.65;6.55;;;;;;;21.76;100.00;100297.25;714369;1200;114649;-75
2021/07/25 05:49:56;;;;;;;9.75;7.20;;;;;;;22.27;100.00;100293.80;714504;1204;114378;-76
2021/07/25 06:04:58;;;;;;;10.57;7.30;;;;;;;23.03;97.66;100295.85;714301;1202;115260;-76
2021/07/25 06:20:01;;;;;;;11.47;7.23;;;;;;;23.68;94.30;100294.72;714273;1185;114250;-78
2021/07/25 06:35:03;;;;;;;9.77;7.37;;;;;;;24.36;89.72;100287.55;715239;1177;114204;-77
2021/07/25 06:50:06;;;;;;;11.20;7.53;;;;;;;24.98;84.07;100279.25;714778;1200;115352;-73
2021/07/25 07:05:08;;;;;;;8.03;6.50;;;;;;;25.73;82.87;100280.47;715037;1203;114763;-76
2021/07/25 07:20:12;;;;;;;14.47;8.93;;;;;;;26.42;79.03;100286.94;716788;1201;115246;-76
2021/07/25 07:35:14;;;;;;;9.28;6.33;;;;;;;27.24;76.68;100280.28;715921;1202;115978;-70
2021/07/25 07:50:17;;;;;;;12.70;7.08;;;;;;;28.27;73.69;100266.53;714647;1200;115266;-79
2021/07/25 08:05:20;;;;;;;9.43;5.93;;;;;;;28.99;70.42;100267.22;715041;1203;115492;-83
2021/07/25 08:20:22;;;;;;;8.50;6.00;;;;;;;29.59;68.52;100257.09;714914;1200;114382;-77
2021/07/25 08:35:25;;;;;;;8.47;5.93;;;;;;;30.19;66.16;100259.48;714914;1177;115088;-80
2021/07/25 08:50:35;;;;;;;;;;;;;;;30.29;61.55;100262.22;714088;1202;114161;-78
2021/07/25 09:05:37;;;;;;;7.77;5.00;;;;;;;30.42;60.76;100266.30;714488;1201;101464;-81
2021/07/25 09:20:41;;;;;;;7.33;5.88;;;;;;;30.68;60.54;100269.88;714332;1200;113829;-81
2021/07/25 09:35:44;;;;;;;6.70;5.60;;;;;;;31.39;60.50;100250.31;714087;1202;114464;-79
2021/07/25 09:50:47;;;;;;;10.60;6.63;;;;;;;31.85;59.89;100242.03;714596;1202;115140;-82
2021/07/25 10:05:53;;;;;;;7.58;6.25;;;;;;;32.06;58.23;100252.75;715449;1200;114599;-79
2021/07/25 10:20:57;;;;;;;8.48;5.48;;;;;;;32.32;57.72;100242.58;714399;1200;114305;-77
2021/07/25 10:36:02;;;;;;;6.70;5.68;;;;;;;32.86;56.58;100238.10;715010;1200;115212;-86
2021/07/25 10:51:11;;;;;;;7.83;6.30;;;;;;;33.17;56.36;100235.09;716422;1202;114916;-85
2021/07/25 11:06:17;;;;;;;7.95;5.90;;;;;;;33.45;55.38;100221.77;716186;1193;114056;-81
2021/07/25 11:21:40;;;;;;;7.55;5.53;;;;;;;32.72;56.03;100213.53;716769;1200;113977;-76
2021/07/25 11:36:44;;;;;;;7.08;5.63;;;;;;;33.66;55.33;100204.08;716836;1200;114386;-80
2021/07/25 11:52:08;;;;;;;8.85;5.60;;;;;;;34.72;53.09;100217.48;715374;1202;114449;-79
2021/07/25 12:07:16;;;;;;;8.45;6.48;;;;;;;35.13;50.83;100215.96;713711;1202;113978;-80
2021/07/25 12:22:19;;;;;;;6.83;5.53;;;;;;;33.32;51.11;100218.66;713770;1205;113923;-81
2021/07/25 12:37:29;;;;;;;5.90;5.30;;;;;;;32.77;51.83;100196.38;713775;1202;113972;-80
2021/07/25 12:52:31;;;;;;;7.25;5.23;;;;;;;33.91;52.29;100193.98;713710;1201;114898;-81
2021/07/25 13:07:33;;;;;;;8.60;5.20;;;;;;;34.83;50.71;100186.28;714232;1200;113428;-80
2021/07/25 13:22:36;;;;;;;9.05;6.00;;;;;;;35.27;49.00;100175.88;714652;1200;113984;-80
2021/07/25 13:37:38;;;;;;;6.23;5.48;;;;;;;34.64;46.75;100167.27;714408;1201;114610;-81
2021/07/25 13:52:41;;;;;;;6.00;5.00;;;;;;;34.85;48.28;100158.73;714062;1179;114013;-79
2021/07/25 14:07:43;;;;;;;7.30;5.20;;;;;;;35.16;47.92;100150.77;713820;1202;114807;-79
2021/07/25 14:22:45;;;;;;;7.40;5.60;;;;;;;34.33;47.84;100154.17;713694;1203;114036;-80
2021/07/25 14:37:47;;;;;;;8.13;6.20;;;;;;;33.89;48.64;100160.82;714103;1206;114091;-80
2021/07/25 14:52:49;;;;;;;6.17;5.30;;;;;;;33.03;49.77;100156.17;713773;1202;114461;-80
2021/07/25 15:07:51;;;;;;;7.73;5.67;;;;;;;32.89;50.54;100155.25;713799;1205;115720;-79
2021/07/25 15:22:58;;;;;;;8.00;5.40;;;;;;;32.39;51.63;100160.85;714486;1203;114592;-79
2021/07/25 15:38:00;;;;;;;8.00;5.70;;;;;;;32.15;52.18;100140.67;713908;1202;114750;-79
2021/07/25 15:53:02;;;;;;;11.43;6.63;;;;;;;31.85;52.67;100139.00;713776;1180;114420;-76
2021/07/25 16:08:06;;;;;;;22.38;9.18;;;;;;;31.79;53.68;100137.40;713807;1201;114603;-76
2021/07/25 16:23:08;;;;;;;18.68;12.45;;;;;;;31.60;54.30;100127.18;714940;1203;114195;-78
2021/07/25 16:38:10;;;;;;;18.75;9.68;;;;;;;31.18;55.59;100128.47;714953;1200;115159;-78
2021/07/25 16:53:12;;;;;;;14.20;9.48;;;;;;;30.82;57.52;100136.68;713916;1202;114157;-75
2021/07/25 17:08:15;;;;;;;19.03;12.43;;;;;;;30.30;58.42;100136.72;713984;1202;115028;-76
2021/07/25 17:23:17;;;;;;;12.70;8.50;;;;;;;29.08;61.28;100151.47;715172;1202;115060;-76
2021/07/25 17:38:19;;;;;;;8.97;7.47;;;;;;;28.21;63.16;100157.82;713938;1192;114276;-77
2021/07/25 17:53:25;;;;;;;14.43;8.40;;;;;;;27.37;64.73;100152.59;713816;1203;114488;-77
2021/07/25 18:08:27;;;;;;;12.90;8.20;;;;;;;27.30;66.06;100160.00;713910;1200;114618;-76
2021/07/25 18:23:30;;;;;;;36.45;20.95;;;;;;;27.22;67.65;100155.86;713961;1181;114367;-75
2021/07/25 18:38:34;;;;;;;15.20;9.65;;;;;;;26.48;70.57;100174.92;713938;1202;115923;-76
2021/07/25 18:53:36;;;;;;;14.50;10.37;;;;;;;26.19;71.79;100193.78;714084;1202;114269;-76
2021/07/25 19:08:39;;;;;;;15.78;10.63;;;;;;;25.96;73.90;100198.18;714685;1202;114773;-77
2021/07/25 19:23:41;;;;;;;19.07;11.43;;;;;;;25.52;74.96;100192.45;714627;1177;114908;-76
2021/07/25 19:38:51;;;;;;;16.40;9.87;;;;;;;25.14;77.15;100194.59;714725;1186;114724;-76
2021/07/25 19:53:54;;;;;;;18.67;11.33;;;;;;;24.97;78.33;100186.42;714810;1202;115287;-76
2021/07/25 20:08:56;;;;;;;20.55;12.25;;;;;;;24.57;80.16;100198.59;715116;1186;114279;-75
2021/07/25 20:24:05;;;;;;;11.50;9.37;;;;;;;24.27;81.33;100212.03;715381;1177;114624;-77
2021/07/25 20:39:07;;;;;;;17.50;10.00;;;;;;;23.99;82.10;100231.34;714867;1202;114695;-75
2021/07/25 20:54:10;;;;;;;11.90;9.43;;;;;;;23.71;83.41;100217.42;714722;1177;114458;-76
2021/07/25 21:09:27;;;;;;;12.80;8.70;;;;;;;23.40;83.68;100221.88;714779;1202;114259;-76
2021/07/25 21:24:35;;;;;;;15.10;8.07;;;;;;;23.27;83.02;100205.97;715391;1202;115380;-76
2021/07/25 21:39:38;;;;;;;15.13;8.85;;;;;;;22.90;83.16;100213.89;714748;1202;114648;-74
2021/07/25 21:54:40;;;;;;;10.93;7.68;;;;;;;23.03;82.20;100208.42;714355;1177;114480;-75
2021/07/25 22:09:42;;;;;;;12.93;7.90;;;;;;;23.01;82.92;100194.44;714789;1177;114131;-75
2021/07/25 22:24:44;;;;;;;11.63;8.30;;;;;;;22.86;84.16;100188.63;714580;1200;114155;-75
2021/07/25 22:39:46;;;;;;;11.95;9.15;;;;;;;22.51;86.39;100192.56;714366;1177;114164;-73
2021/07/25 22:54:48;;;;;;;13.20;9.53;;;;;;;22.11;88.70;100203.48;714296;1202;114161;-76
2021/07/25 23:09:51;;;;;;;13.17;9.67;;;;;;;21.87;90.18;100207.70;714481;1179;114180;-75
2021/07/25 23:24:54;;;;;;;14.45;10.80;;;;;;;21.86;90.97;100206.06;714228;1202;114600;-75
2021/07/25 23:39:56;;;;;;;11.68;9.88;;;;;;;21.58;92.08;100189.31;714145;1200;114592;-75
2021/07/25 23:54:58;;;;;;;15.23;11.13;;;;;;;21.30;93.47;100189.57;714027;1178;114610;-75
